Time;durP1;ratioP1;P1;durP2;ratioP2;P2;SDS_P1;SDS_P2;PMS_P1;PMS_P2;Temp;Humidity;BMP_temperature;BMP_pressure;BME280_temperature;BME280_humidity;BME280_pressure;Samples;Min_cycle;Max_cycle;Signal;HPM_P1;HPM_P2
2022/06/26 00:01:56;;;;;;;45.67;40.83;;;;;;;;;;6262946;22;20020;-80
2022/06/26 00:04:22;;;;;;;48.38;42.75;;;;;;;;;;6265417;22;20467;-81
2022/06/26 00:06:48;;;;;;;47.92;42.35;;;;;;;;;;6262677;22;20487;-80
2022/06/26 00:09:15;;;;;;;47.15;42.00;;;;;;;;;;6263376;22;20097;-80
2022/06/26 00:11:41;;;;;;;51.17;45.40;;;;;;;;;;6233807;22;20027;-81
2022/06/26 00:14:07;;;;;;;54.60;45.13;;;;;;;;;;6235839;22;20035;-82
2022/06/26 00:16:33;;;;;;;56.17;48.05;;;;;;;;;;6209083;22;20085;-82
2022/06/26 00:18:59;;;;;;;62.90;50.72;;;;;;;;;;6261560;22;20043;-81
2022/06/26 00:21:28;;;;;;;60.47;51.25;;;;;;;;;;6235592;22;20336;-82
2022/06/26 00:23:54;;;;;;;62.45;52.47;;;;;;;;;;6235507;22;20024;-81
2022/06/26 00:26:20;;;;;;;64.07;50.95;;;;;;;;;;6260781;22;20015;-80
2022/06/26 00:28:46;;;;;;;65.38;53.65;;;;;;;;;;6234813;22;20016;-81
2022/06/26 00:31:30;;;;;;;60.53;50.95;;;;;;;;;;6211552;22;20039;-80
2022/06/26 00:33:56;;;;;;;64.35;52.30;;;;;;;;;;6260869;22;20072;-80
2022/06/26 00:36:22;;;;;;;65.72;53.90;;;;;;;;;;6236168;22;20023;-80
2022/06/26 00:38:52;;;;;;;65.57;54.80;;;;;;;;;;6261670;22;20022;-79
2022/06/26 00:41:19;;;;;;;70.10;56.13;;;;;;;;;;6261946;22;20109;-80
2022/06/26 00:43:45;;;;;;;65.22;54.38;;;;;;;;;;6234472;22;20027;-80
2022/06/26 00:46:11;;;;;;;71.70;57.20;;;;;;;;;;6260531;22;20107;-80
2022/06/26 00:48:37;;;;;;;70.63;57.67;;;;;;;;;;6263381;22;20031;-80
2022/06/26 00:51:04;;;;;;;73.18;58.97;;;;;;;;;;6234179;22;20027;-79
2022/06/26 00:53:30;;;;;;;76.47;58.40;;;;;;;;;;6261450;22;20019;-79
2022/06/26 00:55:56;;;;;;;74.50;57.20;;;;;;;;;;6260666;22;20020;-79
2022/06/26 00:58:23;;;;;;;76.57;59.35;;;;;;;;;;6263008;22;20392;-80
2022/06/26 01:00:49;;;;;;;77.18;61.42;;;;;;;;;;6262583;22;20188;-80
2022/06/26 01:03:15;;;;;;;80.43;61.22;;;;;;;;;;6239238;22;20360;-80
2022/06/26 01:05:41;;;;;;;82.60;63.53;;;;;;;;;;6267914;22;20027;-79
2022/06/26 01:08:10;;;;;;;83.40;64.32;;;;;;;;;;6272034;22;20051;-79
2022/06/26 01:10:38;;;;;;;77.68;62.08;;;;;;;;;;6271439;22;20130;-80
2022/06/26 01:13:04;;;;;;;83.53;62.22;;;;;;;;;;6266946;22;20047;-79
2022/06/26 01:15:30;;;;;;;79.72;60.30;;;;;;;;;;6262799;22;20047;-80
2022/06/26 01:17:56;;;;;;;64.82;52.65;;;;;;;;;;6262597;22;20396;-80
2022/06/26 01:20:22;;;;;;;60.33;50.72;;;;;;;;;;6263544;22;20073;-79
2022/06/26 01:22:58;;;;;;;54.58;46.85;;;;;;;;;;6261366;22;20012;-79
2022/06/26 01:25:39;;;;;;;65.50;51.90;;;;;;;;;;6263254;22;20024;-80
2022/06/26 01:28:05;;;;;;;58.92;48.15;;;;;;;;;;6263107;22;20026;-79
2022/06/26 01:30:31;;;;;;;57.70;49.33;;;;;;;;;;6263507;22;20050;-80
2022/06/26 01:33:06;;;;;;;56.33;48.03;;;;;;;;;;6263440;22;20016;-79
2022/06/26 01:35:33;;;;;;;55.65;47.17;;;;;;;;;;6264114;22;20134;-80
2022/06/26 01:38:11;;;;;;;55.80;47.08;;;;;;;;;;6266888;22;20019;-80
2022/06/26 01:40:42;;;;;;;55.38;48.38;;;;;;;;;;6265157;22;20483;-79
2022/06/26 01:43:08;;;;;;;60.33;50.50;;;;;;;;;;6236808;22;20055;-81
2022/06/26 01:45:41;;;;;;;58.55;47.38;;;;;;;;;;6263383;22;20024;-80
2022/06/26 01:48:08;;;;;;;59.50;49.13;;;;;;;;;;6262940;22;20028;-81
2022/06/26 01:50:34;;;;;;;60.15;47.85;;;;;;;;;;6265808;22;20016;-81
2022/06/26 01:53:00;;;;;;;53.05;47.20;;;;;;;;;;6263192;22;20035;-80
2022/06/26 01:55:26;;;;;;;59.38;49.40;;;;;;;;;;6265050;22;20046;-79
2022/06/26 01:57:52;;;;;;;54.58;45.70;;;;;;;;;;6284544;22;20054;-79
2022/06/26 02:00:18;;;;;;;42.97;37.58;;;;;;;;;;6242391;22;20387;-79
2022/06/26 02:02:44;;;;;;;39.90;35.63;;;;;;;;;;6294473;22;20832;-81
2022/06/26 02:05:10;;;;;;;52.17;37.13;;;;;;;;;;6294755;22;20462;-81
2022/06/26 02:07:36;;;;;;;43.40;34.13;;;;;;;;;;6267598;22;20626;-80
2022/06/26 02:15:51;;;;;;;31.52;28.23;;;;;;;;;;6293158;22;20719;-80
2022/06/26 02:18:17;;;;;;;32.47;27.88;;;;;;;;;;6295147;22;20023;-80
2022/06/26 02:20:43;;;;;;;34.67;26.75;;;;;;;;;;6293082;22;20077;-81
2022/06/26 02:23:10;;;;;;;32.83;28.27;;;;;;;;;;6266345;22;20348;-80
2022/06/26 02:25:36;;;;;;;34.72;28.05;;;;;;;;;;6266261;22;20027;-79
2022/06/26 02:28:03;;;;;;;33.28;27.73;;;;;;;;;;6294601;22;20391;-80
2022/06/26 02:30:29;;;;;;;32.13;26.35;;;;;;;;;;6294606;22;20072;-80
2022/06/26 02:33:04;;;;;;;30.10;26.42;;;;;;;;;;6294208;22;20026;-80
2022/06/26 02:35:30;;;;;;;31.23;25.73;;;;;;;;;;6295716;22;20088;-80
2022/06/26 02:38:00;;;;;;;25.25;22.55;;;;;;;;;;6296145;22;20061;-79
2022/06/26 02:40:26;;;;;;;29.45;22.60;;;;;;;;;;6266355;22;20460;-81
2022/06/26 02:42:53;;;;;;;25.05;21.13;;;;;;;;;;6293950;22;20824;-80
2022/06/26 02:45:19;;;;;;;22.55;20.17;;;;;;;;;;6239266;22;20019;-80
2022/06/26 02:47:46;;;;;;;22.92;19.73;;;;;;;;;;6266186;22;20019;-81
2022/06/26 02:50:12;;;;;;;21.73;19.40;;;;;;;;;;6294327;22;20113;-80
2022/06/26 02:52:39;;;;;;;25.52;19.58;;;;;;;;;;6265794;22;20030;-80
2022/06/26 02:55:05;;;;;;;23.20;19.08;;;;;;;;;;6294021;22;20027;-80
2022/06/26 02:57:31;;;;;;;21.55;19.27;;;;;;;;;;6281692;22;20023;-80
2022/06/26 02:59:57;;;;;;;22.10;19.52;;;;;;;;;;6262805;22;20126;-80
2022/06/26 03:02:24;;;;;;;24.27;20.65;;;;;;;;;;6262433;22;20016;-80
2022/06/26 03:04:51;;;;;;;25.05;21.60;;;;;;;;;;6235028;22;20058;-80
2022/06/26 03:07:17;;;;;;;23.13;20.63;;;;;;;;;;6238295;22;20023;-81
2022/06/26 03:09:43;;;;;;;21.23;18.88;;;;;;;;;;6264049;22;20072;-80
2022/06/26 03:12:09;;;;;;;26.23;18.42;;;;;;;;;;6260386;22;20023;-80
2022/06/26 03:14:36;;;;;;;19.30;17.25;;;;;;;;;;6234865;22;20513;-79
2022/06/26 03:17:02;;;;;;;16.92;15.18;;;;;;;;;;6263115;22;20340;-81
2022/06/26 03:19:28;;;;;;;15.60;10.50;;;;;;;;;;6265074;22;20406;-80
2022/06/26 03:21:54;;;;;;;12.75;9.05;;;;;;;;;;6264193;22;20521;-82
2022/06/26 03:24:20;;;;;;;9.48;7.72;;;;;;;;;;6235707;22;20019;-81
2022/06/26 03:26:47;;;;;;;9.50;7.25;;;;;;;;;;6262513;22;20095;-80
2022/06/26 03:29:14;;;;;;;9.80;7.32;;;;;;;;;;6264326;22;20046;-81
2022/06/26 03:31:40;;;;;;;9.27;7.10;;;;;;;;;;6261446;22;20022;-79
2022/06/26 03:34:07;;;;;;;11.43;6.80;;;;;;;;;;6261109;22;20027;-79
2022/06/26 03:36:36;;;;;;;7.47;5.57;;;;;;;;;;6263131;22;20850;-79
2022/06/26 03:39:05;;;;;;;6.95;5.25;;;;;;;;;;6262638;22;20077;-80
2022/06/26 03:41:31;;;;;;;8.25;5.78;;;;;;;;;;6210383;22;20770;-82
2022/06/26 03:44:06;;;;;;;9.07;5.90;;;;;;;;;;6234971;22;20049;-78
2022/06/26 03:46:32;;;;;;;9.02;5.75;;;;;;;;;;6211464;22;20509;-79
2022/06/26 03:49:01;;;;;;;8.90;5.30;;;;;;;;;;6260297;22;20062;-80
2022/06/26 03:51:28;;;;;;;9.05;4.90;;;;;;;;;;6263299;22;20011;-82
2022/06/26 03:53:54;;;;;;;12.65;5.28;;;;;;;;;;6234381;22;20024;-79
2022/06/26 03:56:20;;;;;;;6.47;5.35;;;;;;;;;;6261980;22;20469;-78
2022/06/26 03:58:46;;;;;;;8.07;5.00;;;;;;;;;;6262671;22;20359;-79
2022/06/26 04:01:12;;;;;;;6.00;5.03;;;;;;;;;;6264667;22;20023;-79
2022/06/26 04:03:38;;;;;;;5.95;4.30;;;;;;;;;;6293356;22;20015;-78
2022/06/26 04:06:05;;;;;;;5.70;4.60;;;;;;;;;;6294310;22;20023;-78
2022/06/26 04:08:31;;;;;;;6.85;4.28;;;;;;;;;;6292926;22;20209;-79
2022/06/26 04:10:57;;;;;;;7.35;4.70;;;;;;;;;;6263689;22;20011;-79
2022/06/26 04:13:23;;;;;;;4.57;4.10;;;;;;;;;;6293384;22;20434;-79
2022/06/26 04:15:49;;;;;;;8.48;4.40;;;;;;;;;;6293212;22;20046;-79
2022/06/26 04:18:15;;;;;;;4.85;4.32;;;;;;;;;;6292640;22;20072;-78
2022/06/26 04:20:43;;;;;;;6.93;4.88;;;;;;;;;;6291261;22;20026;-80
2022/06/26 04:23:10;;;;;;;6.30;4.55;;;;;;;;;;6240156;22;20086;-79
2022/06/26 04:25:37;;;;;;;5.30;4.57;;;;;;;;;;6293444;22;20125;-78
2022/06/26 04:28:04;;;;;;;7.57;4.80;;;;;;;;;;6292410;22;20550;-80
2022/06/26 04:30:30;;;;;;;7.57;5.03;;;;;;;;;;6292607;22;20022;-79
2022/06/26 04:32:56;;;;;;;5.78;4.47;;;;;;;;;;6293906;22;20030;-79
2022/06/26 04:35:22;;;;;;;8.13;4.50;;;;;;;;;;6270922;22;20023;-80
2022/06/26 04:37:48;;;;;;;6.13;4.60;;;;;;;;;;6299783;22;20015;-79
2022/06/26 04:40:14;;;;;;;6.82;4.32;;;;;;;;;;6302584;22;20019;-80
2022/06/26 04:42:41;;;;;;;4.90;4.40;;;;;;;;;;6251726;22;20019;-78
2022/06/26 04:45:08;;;;;;;9.35;4.78;;;;;;;;;;6298555;22;20023;-77
2022/06/26 04:47:35;;;;;;;7.18;4.22;;;;;;;;;;6293550;22;20030;-79
2022/06/26 04:50:01;;;;;;;6.70;4.80;;;;;;;;;;6266048;22;20061;-80
2022/06/26 04:52:27;;;;;;;6.15;4.40;;;;;;;;;;6263859;22;20015;-79
2022/06/26 04:54:53;;;;;;;8.75;5.22;;;;;;;;;;6266623;22;20031;-79
2022/06/26 04:57:20;;;;;;;8.88;4.35;;;;;;;;;;6280880;22;20444;-80
2022/06/26 04:59:46;;;;;;;6.32;4.60;;;;;;;;;;6261210;22;20119;-80
2022/06/26 05:02:14;;;;;;;5.70;5.15;;;;;;;;;;6264134;22;20016;-79
2022/06/26 05:04:40;;;;;;;4.88;4.22;;;;;;;;;;6211849;22;20075;-80
2022/06/26 05:07:09;;;;;;;5.93;4.07;;;;;;;;;;6264143;22;20015;-80
2022/06/26 05:09:36;;;;;;;4.45;4.05;;;;;;;;;;6232179;22;20019;-79
2022/06/26 05:12:02;;;;;;;5.72;4.43;;;;;;;;;;6213210;22;20098;-79
2022/06/26 05:14:33;;;;;;;12.15;4.70;;;;;;;;;;6263922;22;20459;-79
2022/06/26 05:17:05;;;;;;;6.30;4.70;;;;;;;;;;6211529;22;20098;-80
2022/06/26 05:19:31;;;;;;;5.55;4.00;;;;;;;;;;6264528;22;20020;-80
2022/06/26 05:21:58;;;;;;;5.82;4.05;;;;;;;;;;6265360;22;20412;-80
2022/06/26 05:24:25;;;;;;;6.72;4.43;;;;;;;;;;6267938;22;20066;-80
2022/06/26 05:26:51;;;;;;;5.20;4.00;;;;;;;;;;6234677;22;20402;-80
2022/06/26 05:29:17;;;;;;;12.65;4.28;;;;;;;;;;6265857;22;20054;-80
2022/06/26 05:31:43;;;;;;;7.63;4.00;;;;;;;;;;6262667;22;20020;-80
2022/06/26 05:34:09;;;;;;;5.30;3.85;;;;;;;;;;6237091;22;20015;-79
2022/06/26 05:36:41;;;;;;;4.60;3.83;;;;;;;;;;6262913;22;20683;-80
2022/06/26 05:39:07;;;;;;;5.22;3.85;;;;;;;;;;6262227;22;20107;-79
2022/06/26 05:41:40;;;;;;;6.70;3.95;;;;;;;;;;6263627;22;20329;-79
2022/06/26 05:44:06;;;;;;;7.00;4.03;;;;;;;;;;6236704;22;20092;-79
2022/06/26 05:46:32;;;;;;;5.22;3.80;;;;;;;;;;6264524;22;20024;-80
2022/06/26 05:48:58;;;;;;;4.75;4.00;;;;;;;;;;6238291;22;20463;-80
2022/06/26 05:51:24;;;;;;;4.70;3.83;;;;;;;;;;6266413;22;20015;-81
2022/06/26 05:53:50;;;;;;;6.20;4.00;;;;;;;;;;6264457;22;20027;-81
2022/06/26 05:56:16;;;;;;;5.93;4.03;;;;;;;;;;6265680;22;20019;-82
2022/06/26 05:58:43;;;;;;;5.68;3.90;;;;;;;;;;6263528;22;20047;-81
2022/06/26 06:01:16;;;;;;;5.07;3.63;;;;;;;;;;6265131;22;20096;-79
2022/06/26 06:03:43;;;;;;;3.78;3.40;;;;;;;;;;6265047;22;20081;-79
2022/06/26 06:06:09;;;;;;;5.82;3.92;;;;;;;;;;6264078;22;20020;-80
2022/06/26 06:08:35;;;;;;;5.20;4.20;;;;;;;;;;6265809;22;20695;-80
2022/06/26 06:11:01;;;;;;;4.40;3.95;;;;;;;;;;6264189;22;20020;-79
2022/06/26 06:13:30;;;;;;;5.68;4.13;;;;;;;;;;6238125;22;20016;-79
2022/06/26 06:15:56;;;;;;;6.00;4.15;;;;;;;;;;6235729;22;20474;-81
2022/06/26 06:18:22;;;;;;;5.90;4.50;;;;;;;;;;6263412;22;20278;-80
2022/06/26 06:20:50;;;;;;;10.23;4.78;;;;;;;;;;6212797;22;20025;-79
2022/06/26 06:23:28;;;;;;;5.88;5.28;;;;;;;;;;6238066;22;20455;-80
2022/06/26 06:25:54;;;;;;;11.32;4.80;;;;;;;;;;6238455;22;20023;-81
2022/06/26 06:28:20;;;;;;;8.00;5.25;;;;;;;;;;6267034;22;20016;-80
2022/06/26 06:30:46;;;;;;;7.65;5.47;;;;;;;;;;6265857;22;20098;-82
2022/06/26 06:33:12;;;;;;;7.38;6.45;;;;;;;;;;6265069;22;20511;-80
2022/06/26 06:35:40;;;;;;;7.72;6.95;;;;;;;;;;6240135;22;20015;-81
2022/06/26 06:38:06;;;;;;;8.48;7.07;;;;;;;;;;6265548;22;20011;-80
2022/06/26 06:40:35;;;;;;;10.52;8.50;;;;;;;;;;6265463;22;20015;-80
2022/06/26 06:43:09;;;;;;;8.77;7.88;;;;;;;;;;6212904;22;20049;-81
2022/06/26 06:45:35;;;;;;;10.77;8.65;;;;;;;;;;6239267;22;20020;-80
2022/06/26 06:48:01;;;;;;;12.50;9.30;;;;;;;;;;6263952;22;20026;-80
2022/06/26 06:50:27;;;;;;;12.88;10.07;;;;;;;;;;6236117;22;20875;-79
2022/06/26 06:52:53;;;;;;;12.88;10.48;;;;;;;;;;6264452;22;20087;-79
2022/06/26 06:55:19;;;;;;;12.02;10.75;;;;;;;;;;6266031;22;20077;-83
2022/06/26 06:57:45;;;;;;;12.88;11.57;;;;;;;;;;6277136;22;20043;-80
2022/06/26 07:00:12;;;;;;;13.52;11.43;;;;;;;;;;6296661;22;20357;-80
2022/06/26 07:02:38;;;;;;;12.50;11.20;;;;;;;;;;6270126;22;20015;-79
2022/06/26 07:05:05;;;;;;;13.13;11.70;;;;;;;;;;6296996;22;20030;-79
2022/06/26 07:07:31;;;;;;;15.48;12.13;;;;;;;;;;6297968;22;20018;-81
2022/06/26 07:09:57;;;;;;;14.38;12.98;;;;;;;;;;6270394;22;20019;-79
2022/06/26 07:12:27;;;;;;;15.18;13.63;;;;;;;;;;6270518;22;20029;-80
2022/06/26 07:14:53;;;;;;;15.48;13.88;;;;;;;;;;6295823;22;20021;-81
2022/06/26 07:17:22;;;;;;;21.02;15.27;;;;;;;;;;6271947;22;20057;-81
2022/06/26 07:19:58;;;;;;;18.63;14.93;;;;;;;;;;6297487;22;20076;-81
2022/06/26 07:22:24;;;;;;;16.15;14.23;;;;;;;;;;6299617;22;20026;-80
2022/06/26 07:25:19;;;;;;;;;;;;;;;;;;;;;
2022/06/26 07:27:54;;;;;;;15.13;13.63;;;;;;;;;;6268854;22;20740;-82
2022/06/26 07:30:35;;;;;;;15.50;14.02;;;;;;;;;;6271387;22;20384;-80
2022/06/26 07:36:07;;;;;;;16.05;14.55;;;;;;;;;;6296669;22;20015;-80
2022/06/26 07:38:33;;;;;;;15.95;14.43;;;;;;;;;;6297368;22;20023;-81
2022/06/26 07:40:59;;;;;;;16.38;14.38;;;;;;;;;;6299679;22;20022;-81
2022/06/26 07:43:37;;;;;;;15.90;14.30;;;;;;;;;;6273762;22;20466;-81
2022/06/26 07:46:05;;;;;;;17.10;15.30;;;;;;;;;;6209420;23;20030;-81
2022/06/26 07:48:32;;;;;;;17.15;14.05;;;;;;;;;;6211627;23;20415;-80
2022/06/26 07:53:46;;;;;;;16.40;14.80;;;;;;;;;;6217186;23;20071;-82
2022/06/26 07:56:13;;;;;;;14.93;13.40;;;;;;;;;;6212091;23;20102;-81
2022/06/26 07:58:39;;;;;;;14.82;13.43;;;;;;;;;;6186544;23;20024;-81
2022/06/26 08:01:05;;;;;;;17.75;15.95;;;;;;;;;;6205991;23;20100;-82
2022/06/26 08:03:31;;;;;;;17.30;15.30;;;;;;;;;;6207793;23;20012;-80
2022/06/26 08:05:57;;;;;;;17.90;15.60;;;;;;;;;;6214680;23;20031;-82
2022/06/26 08:08:26;;;;;;;16.35;14.68;;;;;;;;;;6215195;23;20087;-82
2022/06/26 08:10:52;;;;;;;24.42;17.38;;;;;;;;;;6185544;23;20415;-81
2022/06/26 08:13:18;;;;;;;17.85;16.05;;;;;;;;;;6207873;23;20021;-81
2022/06/26 08:15:44;;;;;;;19.05;17.00;;;;;;;;;;6207356;22;20048;-82
2022/06/26 08:18:11;;;;;;;19.48;17.48;;;;;;;;;;6267565;22;20043;-80
2022/06/26 08:20:37;;;;;;;19.63;17.65;;;;;;;;;;6269171;22;20045;-83
2022/06/26 08:23:03;;;;;;;19.70;17.52;;;;;;;;;;6269264;22;20527;-80
2022/06/26 08:25:30;;;;;;;21.02;18.50;;;;;;;;;;6268370;22;20542;-79
2022/06/26 08:27:56;;;;;;;20.27;18.27;;;;;;;;;;6267856;22;20042;-80
2022/06/26 08:30:22;;;;;;;18.27;16.45;;;;;;;;;;6267717;22;20433;-82
2022/06/26 08:32:48;;;;;;;18.33;16.15;;;;;;;;;;6266572;22;20023;-81
2022/06/26 08:35:14;;;;;;;17.27;15.68;;;;;;;;;;6269841;22;20070;-81
2022/06/26 08:37:45;;;;;;;16.92;15.38;;;;;;;;;;6242934;22;20031;-82
2022/06/26 08:40:12;;;;;;;20.55;16.10;;;;;;;;;;6270827;22;20019;-82
2022/06/26 08:42:39;;;;;;;18.30;16.45;;;;;;;;;;6268856;22;20023;-82
2022/06/26 08:45:06;;;;;;;17.25;15.60;;;;;;;;;;6270079;22;20020;-81
2022/06/26 08:47:34;;;;;;;18.02;16.33;;;;;;;;;;6270243;22;20020;-82
2022/06/26 08:50:01;;;;;;;18.75;16.88;;;;;;;;;;6246363;22;20802;-80
2022/06/26 08:52:28;;;;;;;19.25;17.30;;;;;;;;;;6271628;22;20058;-81
2022/06/26 08:54:54;;;;;;;17.85;16.05;;;;;;;;;;6241020;22;20086;-79
2022/06/26 08:57:20;;;;;;;18.40;16.33;;;;;;;;;;6265989;22;20012;-81
2022/06/26 08:59:47;;;;;;;14.30;12.90;;;;;;;;;;6267328;22;20027;-79
2022/06/26 09:02:13;;;;;;;12.15;10.95;;;;;;;;;;6266983;22;20499;-83
2022/06/26 09:04:39;;;;;;;13.10;9.85;;;;;;;;;;6265840;22;20101;-79
2022/06/26 09:07:09;;;;;;;16.88;11.20;;;;;;;;;;6264161;22;20020;-81
2022/06/26 09:09:38;;;;;;;12.30;9.60;;;;;;;;;;6266609;22;20122;-80
2022/06/26 09:12:04;;;;;;;13.85;10.40;;;;;;;;;;6266462;22;20794;-79
2022/06/26 09:14:40;;;;;;;11.48;9.38;;;;;;;;;;6238849;22;20051;-81
2022/06/26 09:17:06;;;;;;;13.20;8.68;;;;;;;;;;6213739;22;20126;-79
2022/06/26 09:19:33;;;;;;;9.70;8.25;;;;;;;;;;6267356;22;20047;-80
2022/06/26 09:22:11;;;;;;;12.07;8.60;;;;;;;;;;6267255;22;20066;-78
2022/06/26 09:24:40;;;;;;;11.90;9.60;;;;;;;;;;6266523;22;20034;-80
2022/06/26 09:27:13;;;;;;;11.98;10.10;;;;;;;;;;6263987;22;20011;-81
2022/06/26 09:29:49;;;;;;;11.80;10.57;;;;;;;;;;6266807;22;20019;-81
2022/06/26 09:32:16;;;;;;;12.48;11.15;;;;;;;;;;6264514;22;20024;-80
2022/06/26 09:34:47;;;;;;;12.45;11.15;;;;;;;;;;6266786;22;20019;-79
2022/06/26 09:37:13;;;;;;;12.95;11.73;;;;;;;;;;6267064;22;20020;-80
2022/06/26 09:39:42;;;;;;;13.32;11.48;;;;;;;;;;6209245;23;20048;-82
2022/06/26 09:42:29;;;;;;;11.05;9.85;;;;;;;;;;6232609;23;20016;-80
2022/06/26 09:44:57;;;;;;;8.65;7.75;;;;;;;;;;6204015;23;20020;-80
2022/06/26 09:47:26;;;;;;;7.53;6.70;;;;;;;;;;6232317;23;20081;-81
2022/06/26 09:49:53;;;;;;;8.63;5.50;;;;;;;;;;6232808;23;20100;-80
2022/06/26 09:52:23;;;;;;;7.35;6.13;;;;;;;;;;6210250;23;20621;-81
2022/06/26 09:54:50;;;;;;;10.13;6.07;;;;;;;;;;6235999;23;20042;-81
2022/06/26 09:57:16;;;;;;;11.77;7.47;;;;;;;;;;6233677;22;20095;-81
2022/06/26 09:59:43;;;;;;;6.78;6.07;;;;;;;;;;6263409;22;20107;-79
2022/06/26 10:08:03;;;;;;;7.00;6.22;;;;;;;;;;6262907;22;20026;-81
2022/06/26 10:10:33;;;;;;;9.20;5.85;;;;;;;;;;6276036;22;20344;-81
2022/06/26 10:13:18;;;;;;;6.15;4.40;;;;;;;;;;6296793;22;20027;-80
2022/06/26 10:15:44;;;;;;;5.30;4.55;;;;;;;;;;6271011;22;20366;-81
2022/06/26 10:18:25;;;;;;;4.30;3.10;;;;;;;;;;6272091;22;20712;-80
2022/06/26 10:20:53;;;;;;;6.65;3.58;;;;;;;;;;6300098;22;20019;-83
2022/06/26 10:23:32;;;;;;;5.07;3.38;;;;;;;;;;6302572;22;20098;-81
2022/06/26 10:25:58;;;;;;;5.57;3.55;;;;;;;;;;6301371;22;20019;-81
2022/06/26 10:28:24;;;;;;;3.83;2.80;;;;;;;;;;6272353;22;20019;-82
2022/06/26 10:30:50;;;;;;;4.63;3.35;;;;;;;;;;6301551;22;20393;-81
2022/06/26 10:33:20;;;;;;;4.28;3.30;;;;;;;;;;6271496;22;20038;-82
2022/06/26 10:35:47;;;;;;;4.65;3.92;;;;;;;;;;6274050;22;20462;-82
2022/06/26 10:38:21;;;;;;;5.43;3.40;;;;;;;;;;6271666;22;20015;-81
2022/06/26 10:43:52;;;;;;;6.93;3.80;;;;;;;;;;6273806;22;20597;-81
2022/06/26 10:46:21;;;;;;;8.25;4.28;;;;;;;;;;6300163;22;20109;-82
2022/06/26 10:48:54;;;;;;;4.88;4.22;;;;;;;;;;6302863;22;20447;-81
2022/06/26 10:51:25;;;;;;;4.95;4.28;;;;;;;;;;6274281;22;20467;-79
2022/06/26 10:53:51;;;;;;;5.50;3.72;;;;;;;;;;6300843;22;20019;-81
2022/06/26 10:56:17;;;;;;;4.15;3.50;;;;;;;;;;6300980;22;20019;-82
2022/06/26 10:58:45;;;;;;;4.28;3.58;;;;;;;;;;6248701;22;20022;-82
2022/06/26 11:01:13;;;;;;;5.07;4.20;;;;;;;;;;6300887;22;20901;-80
2022/06/26 11:03:40;;;;;;;5.95;4.45;;;;;;;;;;6272383;22;20026;-82
2022/06/26 11:06:07;;;;;;;3.63;3.30;;;;;;;;;;6301569;22;20019;-80
2022/06/26 11:08:36;;;;;;;5.18;3.05;;;;;;;;;;6299708;22;20027;-82
2022/06/26 11:11:17;;;;;;;4.72;3.05;;;;;;;;;;6301626;22;20011;-81
2022/06/26 11:13:50;;;;;;;2.40;2.20;;;;;;;;;;6299708;22;20415;-82
2022/06/26 11:16:16;;;;;;;4.00;1.95;;;;;;;;;;6286302;22;20456;-82
2022/06/26 11:18:43;;;;;;;3.47;2.10;;;;;;;;;;6270131;22;20096;-81
2022/06/26 11:21:09;;;;;;;3.67;2.47;;;;;;;;;;6219628;22;20016;-83
2022/06/26 11:23:54;;;;;;;4.03;2.40;;;;;;;;;;6242067;22;20138;-83
2022/06/26 11:26:21;;;;;;;7.55;2.70;;;;;;;;;;6271628;22;20024;-81
2022/06/26 11:29:12;;;;;;;3.22;2.58;;;;;;;;;;6271607;22;20071;-83
2022/06/26 11:31:38;;;;;;;2.90;2.60;;;;;;;;;;6269687;22;20038;-82
2022/06/26 11:34:07;;;;;;;3.88;2.30;;;;;;;;;;6219384;22;20126;-83
2022/06/26 11:36:33;;;;;;;3.35;2.35;;;;;;;;;;6271140;22;20020;-83
2022/06/26 11:39:00;;;;;;;2.95;2.22;;;;;;;;;;6246088;22;20020;-84
2022/06/26 11:41:26;;;;;;;2.97;2.20;;;;;;;;;;6269828;22;20019;-83
2022/06/26 11:44:24;;;;;;;3.75;2.20;;;;;;;;;;6243066;22;20023;-81
2022/06/26 11:47:02;;;;;;;6.85;3.20;;;;;;;;;;6245229;22;20030;-85
2022/06/26 11:49:33;;;;;;;6.35;3.08;;;;;;;;;;6270716;22;20471;-82
2022/06/26 11:51:59;;;;;;;9.55;3.17;;;;;;;;;;6273049;22;20129;-83
2022/06/26 11:54:25;;;;;;;9.60;3.22;;;;;;;;;;6271459;22;20119;-84
2022/06/26 11:56:51;;;;;;;8.18;2.83;;;;;;;;;;6272239;22;20073;-83
2022/06/26 11:59:18;;;;;;;5.65;3.03;;;;;;;;;;6217618;22;20016;-83
2022/06/26 12:01:44;;;;;;;4.82;3.05;;;;;;;;;;6243441;22;20455;-84
2022/06/26 12:04:26;;;;;;;4.68;2.78;;;;;;;;;;6271336;22;20035;-82
2022/06/26 12:06:52;;;;;;;5.35;2.65;;;;;;;;;;6245778;22;20034;-83
2022/06/26 12:09:28;;;;;;;5.45;2.65;;;;;;;;;;6247119;22;20016;-83
2022/06/26 12:11:55;;;;;;;4.97;2.67;;;;;;;;;;6249232;22;20019;-83
2022/06/26 12:14:25;;;;;;;9.00;3.10;;;;;;;;;;6278469;22;20098;-82
2022/06/26 12:16:55;;;;;;;4.32;2.58;;;;;;;;;;6242426;22;20020;-82
2022/06/26 12:19:22;;;;;;;4.47;2.22;;;;;;;;;;6269565;22;20051;-83
2022/06/26 12:22:01;;;;;;;7.72;2.95;;;;;;;;;;6269052;22;20015;-84
2022/06/26 12:24:30;;;;;;;6.18;2.85;;;;;;;;;;6266307;22;20019;-79
2022/06/26 12:26:59;;;;;;;4.18;2.45;;;;;;;;;;6237680;22;20020;-82
2022/06/26 12:29:25;;;;;;;7.00;2.83;;;;;;;;;;6266273;22;20020;-82
2022/06/26 12:31:55;;;;;;;4.38;2.72;;;;;;;;;;6264704;22;20098;-82
2022/06/26 12:34:23;;;;;;;6.32;2.90;;;;;;;;;;6265062;22;20019;-82
2022/06/26 12:37:17;;;;;;;6.35;2.70;;;;;;;;;;6244955;22;20031;-88
2022/06/26 12:39:49;;;;;;;7.25;2.83;;;;;;;;;;6223218;22;20023;-85
2022/06/26 12:51:37;;;;;;;4.57;2.72;;;;;;;;;;6260280;22;20115;-85
2022/06/26 12:54:03;;;;;;;5.95;3.00;;;;;;;;;;6242626;22;20015;-84
2022/06/26 12:56:30;;;;;;;3.65;2.60;;;;;;;;;;6244610;22;20142;-83
2022/06/26 12:59:06;;;;;;;9.15;2.60;;;;;;;;;;6276184;22;20020;-87
2022/06/26 13:04:48;;;;;;;7.63;3.38;;;;;;;;;;6247601;22;20115;-85
2022/06/26 13:07:31;;;;;;;6.00;3.28;;;;;;;;;;6248105;22;20057;-85
2022/06/26 13:10:00;;;;;;;4.33;2.73;;;;;;;;;;6193562;23;20051;-87
2022/06/26 13:12:42;;;;;;;7.20;2.70;;;;;;;;;;6197126;22;20054;-88
2022/06/26 13:15:27;;;;;;;5.53;2.80;;;;;;;;;;6220956;23;20051;-87
2022/06/26 13:28:03;;;;;;;4.90;2.85;;;;;;;;;;6282701;22;20027;-88
2022/06/26 13:33:53;;;;;;;9.60;3.10;;;;;;;;;;6255311;22;20024;-86
2022/06/26 13:36:44;;;;;;;4.65;2.70;;;;;;;;;;6239892;22;20068;-88
2022/06/26 13:43:19;;;;;;;5.60;2.95;;;;;;;;;;6281191;22;20051;-87
2022/06/26 13:45:46;;;;;;;6.20;2.90;;;;;;;;;;6277940;22;20020;-86
2022/06/26 13:48:24;;;;;;;5.18;2.95;;;;;;;;;;6252481;22;20255;-87
2022/06/26 13:54:19;;;;;;;6.88;2.47;;;;;;;;;;6292004;22;20146;-85
2022/06/26 13:57:07;;;;;;;6.85;3.17;;;;;;;;;;6238727;22;20027;-85
2022/06/26 14:59:48;;;;;;;6.35;2.63;;;;;;;;;;6240193;22;20090;-86
2022/06/26 15:12:05;;;;;;;3.63;1.85;;;;;;;;;;6266703;22;20011;-87
2022/06/26 15:14:31;;;;;;;3.00;2.00;;;;;;;;;;6213208;22;20035;-85
2022/06/26 15:22:55;;;;;;;3.42;1.88;;;;;;;;;;6241652;22;20031;-85
2022/06/26 15:28:47;;;;;;;3.63;2.10;;;;;;;;;;6275360;22;20111;-86
2022/06/26 15:51:17;;;;;;;6.38;2.63;;;;;;;;;;6295194;22;20030;-87
2022/06/26 15:53:47;;;;;;;3.17;2.25;;;;;;;;;;6232402;22;20054;-86
2022/06/26 15:58:51;;;;;;;8.48;2.58;;;;;;;;;;6263164;22;20019;-87
2022/06/26 16:01:17;;;;;;;4.38;2.25;;;;;;;;;;6192261;22;20019;-85
2022/06/26 16:07:02;;;;;;;7.40;2.33;;;;;;;;;;6269614;22;20019;-85
2022/06/26 16:09:28;;;;;;;3.55;2.22;;;;;;;;;;6241282;22;20019;-84
2022/06/26 16:11:54;;;;;;;6.72;2.75;;;;;;;;;;6215376;22;20045;-84
2022/06/26 16:14:21;;;;;;;4.63;2.35;;;;;;;;;;6190401;22;20022;-87
2022/06/26 16:16:59;;;;;;;4.78;2.72;;;;;;;;;;6241870;22;20023;-85
2022/06/26 16:19:25;;;;;;;4.80;2.10;;;;;;;;;;6242025;22;20681;-85
2022/06/26 16:27:22;;;;;;;2.50;1.90;;;;;;;;;;6238408;22;20030;-86
2022/06/26 16:30:03;;;;;;;5.95;2.33;;;;;;;;;;6212061;22;20438;-86
2022/06/26 16:35:33;;;;;;;6.47;2.30;;;;;;;;;;6262405;22;20065;-87
2022/06/26 16:38:17;;;;;;;6.93;2.40;;;;;;;;;;6216431;22;20023;-85
2022/06/26 16:40:43;;;;;;;3.78;2.20;;;;;;;;;;6216761;22;20023;-85
2022/06/26 16:43:09;;;;;;;6.95;2.20;;;;;;;;;;6216111;22;20047;-85
2022/06/26 16:48:33;;;;;;;13.13;2.67;;;;;;;;;;6267481;22;20031;-85
2022/06/26 16:50:59;;;;;;;4.43;2.47;;;;;;;;;;6220774;22;20405;-87
2022/06/26 16:53:42;;;;;;;4.07;2.08;;;;;;;;;;6272266;22;20016;-87
2022/06/26 17:02:09;;;;;;;6.80;3.25;;;;;;;;;;6269783;22;20107;-87
2022/06/26 17:04:35;;;;;;;5.90;3.63;;;;;;;;;;6245060;22;20375;-88
2022/06/26 17:07:02;;;;;;;6.03;3.60;;;;;;;;;;6221577;22;20055;-87
2022/06/26 17:12:47;;;;;;;6.97;3.83;;;;;;;;;;6254601;22;20026;-85
2022/06/26 17:15:28;;;;;;;4.30;2.55;;;;;;;;;;6245787;22;20027;-87
2022/06/26 17:17:55;;;;;;;5.30;2.20;;;;;;;;;;6222117;22;20100;-87
2022/06/26 17:23:19;;;;;;;4.28;2.55;;;;;;;;;;6275814;22;20011;-87
2022/06/26 17:26:02;;;;;;;4.32;2.20;;;;;;;;;;6197738;22;20028;-88
2022/06/26 17:32:08;;;;;;;4.53;2.38;;;;;;;;;;6224718;22;20107;-87
2022/06/26 17:34:49;;;;;;;6.07;2.25;;;;;;;;;;6275939;22;20455;-87
2022/06/26 17:44:41;;;;;;;3.95;1.63;;;;;;;;;;6246768;22;20093;-88
2022/06/26 17:47:48;;;;;;;7.47;2.35;;;;;;;;;;6216519;22;20024;-87
2022/06/26 17:57:19;;;;;;;;;;;;;;;;;;6299932;22;20874;-87
2022/06/26 18:06:59;;;;;;;4.85;2.10;;;;;;;;;;6253916;22;20024;-87
2022/06/26 18:15:56;;;;;;;4.63;2.28;;;;;;;;;;6239085;22;20024;-88
2022/06/26 18:18:26;;;;;;;;;;;;;;;;;;6195108;23;20032;-89